Time;durP1;ratioP1;P1;durP2;ratioP2;P2;SDS_P1;SDS_P2;PMS_P1;PMS_P2;Temp;Humidity;BMP_temperature;BMP_pressure;BME280_temperature;BME280_humidity;BME280_pressure;Samples;Min_cycle;Max_cycle;Signal;HPM_P1;HPM_P2
2021/06/18 00:00:28;;;;;;;9.60;5.30;;;24.40;98.40;;;24.36;52.28;100828.00;4938565;28;98451;-46
2021/06/18 00:02:55;;;;;;;10.00;5.07;;;24.30;98.90;;;24.36;57.17;100828.00;4939600;28;97050;-49
2021/06/18 00:05:21;;;;;;;6.15;4.50;;;24.30;99.90;;;24.39;52.63;100817.78;4941252;28;99016;-48
2021/06/18 00:07:48;;;;;;;8.70;6.07;;;24.40;99.00;;;24.42;53.33;100822.91;4940268;28;97436;-49
2021/06/18 00:10:16;;;;;;;6.45;4.43;;;24.40;99.90;;;24.39;51.93;100830.41;4931872;28;97346;-49
2021/06/18 00:12:42;;;;;;;9.38;5.30;;;24.40;98.40;;;24.43;52.72;100815.66;4939946;28;98255;-52
2021/06/18 00:15:11;;;;;;;5.75;4.68;;;24.40;99.20;;;24.47;52.52;100828.75;4939775;28;98290;-51
2021/06/18 00:17:37;;;;;;;5.38;4.15;;;24.40;99.00;;;24.44;52.49;100833.53;4939220;28;98700;-50
2021/06/18 00:20:08;;;;;;;8.50;5.43;;;24.40;99.10;;;24.46;58.48;100827.03;4952475;28;97336;-54
2021/06/18 00:22:35;;;;;;;10.50;5.95;;;24.40;99.90;;;24.56;60.80;100827.88;4934678;28;100122;-49
2021/06/18 00:25:00;;;;;;;9.13;5.78;;;24.50;99.90;;;24.60;60.09;100829.31;4937199;28;97848;-51
2021/06/18 00:27:27;;;;;;;8.45;5.47;;;24.60;99.90;;;24.62;60.63;100827.34;4940352;28;100559;-51
2021/06/18 00:29:53;;;;;;;8.85;5.53;;;24.60;99.90;;;24.64;59.18;100824.50;4936830;28;97251;-53
2021/06/18 00:32:20;;;;;;;8.82;5.88;;;24.60;99.90;;;24.68;60.81;100828.59;4938301;28;98983;-53
2021/06/18 00:34:46;;;;;;;11.48;6.30;;;24.60;99.90;;;24.61;56.64;100831.03;4930284;28;97013;-49
2021/06/18 00:37:12;;;;;;;6.40;5.55;;;24.60;99.90;;;24.59;54.19;100837.53;4939594;28;99724;-50
2021/06/18 00:39:40;;;;;;;7.20;5.75;;;24.60;99.90;;;24.51;52.46;100843.63;4940887;28;98783;-48
2021/06/18 00:42:07;;;;;;;7.05;5.47;;;24.50;99.00;;;24.54;59.72;100839.81;4937338;28;98250;-55
2021/06/18 00:44:33;;;;;;;7.40;5.97;;;24.50;99.90;;;24.51;54.08;100832.84;4944097;28;99134;-53
2021/06/18 00:46:58;;;;;;;10.50;6.40;;;24.50;99.90;;;24.51;59.38;100830.16;4950249;28;98019;-51
2021/06/18 00:49:25;;;;;;;7.85;5.35;;;24.50;99.90;;;24.45;58.18;100830.72;4940506;28;98999;-59
2021/06/18 00:51:53;;;;;;;8.88;6.35;;;24.40;99.90;;;24.40;52.52;100822.19;4940528;28;97651;-48
2021/06/18 00:54:28;;;;;;;8.07;5.93;;;24.40;98.90;;;24.36;52.59;100820.78;4939274;28;97681;-56
2021/06/18 00:56:59;;;;;;;8.85;6.35;;;24.30;98.90;;;24.33;52.21;100821.91;4938117;28;100062;-56
2021/06/18 00:59:25;;;;;;;4.40;3.63;;;24.30;98.70;;;24.29;52.50;100819.56;4937201;28;99685;-59
2021/06/18 01:01:52;;;;;;;8.27;6.00;;;24.30;98.80;;;24.29;55.06;100820.47;4946490;28;98987;-54
2021/06/18 01:04:24;;;;;;;9.35;6.43;;;24.30;99.90;;;24.29;52.21;100808.78;4941765;28;99256;-52
2021/06/18 01:07:08;;;;;;;5.55;3.60;;;24.30;98.80;;;24.27;52.06;100805.38;4929084;28;99581;-55
2021/06/18 01:10:04;;;;;;;3.00;2.80;;;24.20;98.60;;;24.25;52.23;100799.28;4940519;28;97328;-54
2021/06/18 01:12:46;;;;;;;6.00;5.40;;;24.20;98.70;;;24.20;52.22;100788.94;4938226;28;97952;-50
2021/06/18 01:15:33;;;;;;;4.43;4.13;;;24.20;99.00;;;24.19;52.28;100791.78;4955445;27;101964;-58
2021/06/18 01:18:14;;;;;;;7.68;6.10;;;24.10;98.70;;;24.14;52.17;100788.63;4936685;28;99585;-54
2021/06/18 01:21:13;;;;;;;3.53;3.25;;;24.10;98.60;;;24.12;52.46;100790.59;4938994;28;98200;-57
2021/06/18 01:23:39;;;;;;;7.37;6.07;;;24.10;98.80;;;24.12;52.76;100796.00;4929985;28;97362;-54
2021/06/18 01:26:24;;;;;;;7.57;5.25;;;24.10;99.20;;;24.20;52.75;100798.88;4935721;28;103020;-49
2021/06/18 01:28:56;;;;;;;8.68;7.28;;;24.10;99.40;;;24.18;52.88;100790.94;4937486;28;99460;-53
2021/06/18 01:31:28;;;;;;;9.95;6.63;;;24.10;99.00;;;24.23;52.61;100795.88;4940908;28;97758;-49
2021/06/18 01:34:20;;;;;;;5.88;5.28;;;24.20;99.40;;;24.27;53.14;100789.22;4934678;28;97290;-57
2021/06/18 01:36:55;;;;;;;10.15;6.90;;;24.20;99.90;;;24.24;53.17;100794.91;4939328;28;98652;-52
2021/06/18 01:39:23;;;;;;;8.45;6.60;;;24.20;99.80;;;24.30;53.62;100794.34;4936190;28;98787;-52
2021/06/18 01:41:51;;;;;;;10.27;6.50;;;24.30;99.90;;;24.29;53.52;100792.63;4937616;28;97098;-52
2021/06/18 01:44:19;;;;;;;7.22;6.53;;;24.30;99.90;;;24.35;59.20;100800.19;4940805;28;98330;-49
2021/06/18 01:46:48;;;;;;;7.75;6.97;;;24.30;99.90;;;24.37;59.76;100802.75;4928564;28;99158;-48
2021/06/18 01:49:15;;;;;;;7.33;5.40;;;24.30;99.90;;;24.29;52.91;100792.63;4936950;28;98414;-50
2021/06/18 01:51:43;;;;;;;8.90;6.00;;;24.30;99.50;;;24.24;52.93;100805.69;4934777;28;98456;-53
2021/06/18 01:54:11;;;;;;;6.57;5.83;;;24.20;99.30;;;24.21;52.75;100779.88;4938732;28;97667;-48
2021/06/18 01:56:41;;;;;;;6.28;4.75;;;24.10;99.30;;;24.18;52.42;100785.53;4932322;28;99180;-54
2021/06/18 01:59:07;;;;;;;6.35;5.13;;;24.10;99.10;;;24.18;52.77;100782.00;4951269;28;101235;-52
2021/06/18 02:01:42;;;;;;;5.57;4.90;;;24.10;99.20;;;24.18;52.52;100779.28;4941751;28;97108;-53
2021/06/18 02:04:13;;;;;;;7.43;6.40;;;24.10;99.10;;;24.16;52.73;100775.84;4926094;28;99452;-51
2021/06/18 02:06:41;;;;;;;6.65;5.95;;;24.10;99.30;;;24.15;52.60;100779.53;4940073;28;97201;-53
2021/06/18 02:09:09;;;;;;;7.97;6.57;;;24.10;99.10;;;24.14;52.76;100767.06;4935877;28;100866;-54
2021/06/18 02:11:38;;;;;;;6.30;5.57;;;24.10;99.10;;;24.12;52.74;100759.13;4941237;28;96795;-57
2021/06/18 02:14:13;;;;;;;9.20;7.22;;;24.00;99.10;;;24.11;52.80;100756.56;4944321;28;97191;-59
2021/06/18 02:16:46;;;;;;;7.30;6.60;;;24.10;99.40;;;24.13;53.61;100759.97;4920921;28;98388;-56
2021/06/18 02:19:15;;;;;;;8.10;5.72;;;24.10;99.90;;;24.15;57.89;100768.78;4934346;28;104047;-59
2021/06/18 02:21:43;;;;;;;12.05;7.15;;;24.10;99.90;;;24.15;54.64;100774.16;4935293;28;99020;-58
2021/06/18 02:24:09;;;;;;;6.75;5.18;;;24.10;99.90;;;24.12;53.05;100763.66;4927060;28;97955;-51
2021/06/18 02:26:36;;;;;;;7.75;6.93;;;24.00;99.30;;;24.13;56.42;100757.28;4936212;28;98538;-48
2021/06/18 02:29:02;;;;;;;9.50;7.53;;;24.10;99.90;;;24.21;63.73;100762.84;4933701;28;99218;-52
2021/06/18 02:31:30;;;;;;;8.03;7.23;;;24.10;99.90;;;24.15;60.00;100763.38;4936733;28;98302;-50
2021/06/18 02:33:56;;;;;;;11.23;7.60;;;24.10;99.90;;;24.11;54.30;100762.81;4935795;28;98503;-48
2021/06/18 02:36:22;;;;;;;6.38;5.57;;;24.10;99.90;;;24.11;53.07;100761.97;4929393;28;99183;-51
2021/06/18 02:38:49;;;;;;;5.47;5.05;;;24.00;99.80;;;24.09;53.18;100761.25;4933852;28;97252;-50
2021/06/18 02:41:15;;;;;;;9.97;7.67;;;24.00;99.70;;;24.14;57.39;100775.16;4936190;28;98291;-50
2021/06/18 02:43:42;;;;;;;8.10;7.30;;;24.10;99.90;;;24.16;58.95;100775.84;4931696;28;97516;-51
2021/06/18 02:46:11;;;;;;;13.03;8.83;;;24.10;99.90;;;24.18;63.62;100782.00;4944064;28;99340;-50
2021/06/18 02:48:43;;;;;;;8.77;6.67;;;24.10;99.90;;;24.14;53.71;100773.31;4937293;28;99591;-51
2021/06/18 02:51:30;;;;;;;10.48;8.60;;;24.10;99.90;;;24.20;62.96;100774.63;4943207;28;97178;-49
2021/06/18 02:54:23;;;;;;;11.57;7.43;;;24.10;99.90;;;24.12;53.59;100763.66;4950265;28;97440;-50
2021/06/18 02:56:59;;;;;;;8.93;7.25;;;24.00;99.90;;;24.11;53.51;100778.97;4950222;28;101447;-48
2021/06/18 02:59:32;;;;;;;7.60;6.50;;;24.00;99.90;;;24.10;52.97;100777.28;4967065;28;97523;-47
2021/06/18 03:02:00;;;;;;;9.05;7.82;;;24.00;99.90;;;24.10;54.63;100777.28;4950907;28;100243;-49
2021/06/18 03:04:31;;;;;;;11.87;8.80;;;24.00;99.90;;;24.15;61.75;100782.25;4951368;28;96966;-50
2021/06/18 03:07:07;;;;;;;10.02;8.13;;;24.10;99.90;;;24.15;61.45;100791.19;4948861;28;98107;-48
2021/06/18 03:09:39;;;;;;;9.77;7.80;;;24.10;99.90;;;24.15;62.17;100785.78;4952673;28;97784;-50
2021/06/18 03:12:09;;;;;;;9.33;8.40;;;24.10;99.90;;;24.12;57.52;100790.59;4941506;28;97365;-47
2021/06/18 03:14:37;;;;;;;13.43;9.83;;;24.10;99.90;;;24.10;58.04;100784.50;4945413;28;97043;-51
2021/06/18 03:17:09;;;;;;;11.43;8.47;;;24.00;99.90;;;24.10;53.51;100782.66;4943224;28;98676;-51
2021/06/18 03:19:41;;;;;;;10.35;8.98;;;24.00;99.90;;;24.08;53.48;100799.97;4950792;28;99010;-53
2021/06/18 03:22:08;;;;;;;11.13;8.50;;;23.90;99.90;;;24.04;54.22;100789.47;4944941;28;98326;-50
2021/06/18 03:24:35;;;;;;;11.33;9.17;;;24.00;99.90;;;24.04;54.01;100800.25;4954986;28;97241;-49
2021/06/18 03:27:01;;;;;;;8.52;6.38;;;24.00;99.90;;;24.03;53.60;100793.16;4959010;28;100820;-48
2021/06/18 03:29:29;;;;;;;9.35;8.38;;;24.00;99.90;;;24.01;53.54;100800.53;4953967;28;97319;-54
2021/06/18 03:31:57;;;;;;;12.40;8.90;;;23.90;99.90;;;24.00;54.22;100795.25;4962422;28;98971;-49
2021/06/18 03:34:26;;;;;;;11.90;10.27;;;23.90;99.90;;;24.10;64.13;100800.69;4952569;28;96771;-48
2021/06/18 03:36:54;;;;;;;14.13;9.93;;;24.00;99.90;;;24.09;64.86;100802.53;4962288;28;98818;-52
2021/06/18 03:39:20;;;;;;;10.70;8.90;;;24.00;99.90;;;24.00;54.81;100809.56;4952568;28;98323;-53
2021/06/18 03:41:47;;;;;;;11.17;9.57;;;23.90;99.90;;;23.99;58.48;100815.09;4950537;28;96904;-51
2021/06/18 03:44:19;;;;;;;12.60;9.60;;;23.90;99.90;;;23.98;57.23;100821.50;4960053;28;97492;-51
2021/06/18 03:46:47;;;;;;;16.52;10.02;;;23.90;99.90;;;24.03;64.59;100820.09;4965092;28;98457;-49
2021/06/18 03:49:13;;;;;;;11.40;10.20;;;23.90;99.90;;;24.02;65.23;100823.78;4950231;28;97631;-51
2021/06/18 03:51:40;;;;;;;4.38;4.07;;;23.90;99.90;;;23.95;54.37;100806.44;4949985;28;97445;-55
2021/06/18 03:54:07;;;;;;;11.17;9.83;;;23.90;99.90;;;23.93;55.30;100813.81;4947589;28;97209;-53
2021/06/18 03:56:35;;;;;;;11.00;9.83;;;23.90;99.90;;;23.94;61.14;100804.75;4952512;28;99438;-53
2021/06/18 03:59:02;;;;;;;11.00;9.53;;;23.90;99.90;;;23.90;54.81;100816.81;4947483;28;97696;-51
2021/06/18 04:01:29;;;;;;;12.10;8.43;;;23.90;99.90;;;23.91;53.69;100820.34;4951138;28;97261;-49
2021/06/18 04:03:58;;;;;;;12.57;9.03;;;23.80;99.90;;;23.91;53.77;100820.34;4946560;28;97069;-51
2021/06/18 04:06:28;;;;;;;5.20;4.73;;;23.80;99.90;;;23.91;53.48;100823.88;4950552;28;99699;-54
2021/06/18 04:08:56;;;;;;;4.60;4.17;;;23.80;99.90;;;23.92;53.38;100820.22;4955592;28;100066;-53
2021/06/18 04:11:22;;;;;;;12.50;8.93;;;23.80;99.90;;;23.92;53.54;100809.44;4962171;28;97283;-54
2021/06/18 04:13:48;;;;;;;10.00;8.85;;;23.80;99.90;;;23.93;54.29;100815.66;4929719;28;97799;-52
2021/06/18 04:16:15;;;;;;;9.07;6.30;;;23.90;99.90;;;23.93;53.48;100818.38;4961956;28;98521;-51
2021/06/18 04:18:44;;;;;;;4.83;4.33;;;23.80;99.90;;;23.93;53.34;100819.22;4947073;28;97309;-58
2021/06/18 04:21:18;;;;;;;3.67;2.90;;;23.80;99.90;;;23.92;53.29;100812.13;4957420;28;97507;-58
2021/06/18 04:23:44;;;;;;;12.47;9.37;;;23.80;99.90;;;23.99;60.77;100818.66;4945195;28;97317;-58
2021/06/18 04:26:10;;;;;;;3.60;3.30;;;23.90;99.90;;;23.96;53.38;100810.84;4953418;28;103224;-49
2021/06/18 04:28:37;;;;;;;3.37;3.00;;;23.90;99.90;;;23.95;53.23;100817.22;4968688;28;97306;-51
2021/06/18 04:31:06;;;;;;;3.33;3.03;;;23.90;99.90;;;23.91;53.06;100805.03;4943177;28;97411;-55
2021/06/18 04:33:34;;;;;;;2.63;2.43;;;23.90;99.90;;;23.87;53.34;100803.63;4957339;28;96898;-52
2021/06/18 04:36:00;;;;;;;3.40;2.90;;;23.80;99.90;;;23.85;53.34;100800.16;4949564;28;100912;-49
2021/06/18 04:38:26;;;;;;;3.00;2.80;;;23.80;99.90;;;23.84;53.29;100798.47;4953771;28;98713;-49
2021/06/18 04:40:52;;;;;;;3.15;2.95;;;23.80;99.90;;;23.87;53.23;100803.63;4949291;28;101173;-49
2021/06/18 04:43:19;;;;;;;4.20;3.30;;;23.80;99.80;;;23.90;53.41;100803.34;4973709;28;97039;-53
2021/06/18 04:45:46;;;;;;;5.72;5.22;;;23.90;99.90;;;23.89;53.13;100807.00;4951895;28;97856;-48
2021/06/18 04:48:12;;;;;;;3.13;2.92;;;23.90;99.80;;;23.89;53.45;100804.31;4958849;28;100206;-53
2021/06/18 04:50:39;;;;;;;4.82;4.43;;;23.90;99.90;;;23.93;53.42;100819.22;4971616;28;97181;-49
2021/06/18 04:53:11;;;;;;;12.70;11.30;;;23.90;99.90;;;23.98;56.26;100816.94;4957258;28;97029;-48
2021/06/18 04:55:39;;;;;;;11.40;10.23;;;23.90;99.90;;;23.95;53.39;100830.69;4953239;28;101928;-51
2021/06/18 04:58:06;;;;;;;11.35;10.20;;;23.90;99.90;;;23.96;53.31;100829.72;4955845;28;100073;-49
2021/06/18 05:00:33;;;;;;;8.27;7.55;;;23.90;99.90;;;24.02;55.74;100829.19;4954047;28;97370;-48
2021/06/18 05:02:59;;;;;;;4.35;4.00;;;24.00;99.90;;;23.98;53.31;100825.03;4952884;28;97357;-49
2021/06/18 05:05:26;;;;;;;3.90;3.60;;;24.00;99.90;;;23.93;52.73;100819.22;4953011;28;101082;-47
2021/06/18 05:07:56;;;;;;;3.35;3.05;;;23.90;99.60;;;23.93;53.19;100824.59;4950180;28;97276;-48
2021/06/18 05:10:25;;;;;;;10.80;9.60;;;23.90;99.70;;;23.98;53.81;100826.88;4972322;28;97249;-50
2021/06/18 05:12:52;;;;;;;4.38;3.97;;;23.90;99.90;;;23.91;53.41;100821.19;4962782;28;96628;-49
2021/06/18 05:15:18;;;;;;;3.97;3.67;;;23.90;99.90;;;23.91;53.04;100826.59;4953923;28;99449;-51
2021/06/18 05:17:44;;;;;;;5.35;4.85;;;23.90;99.50;;;23.91;53.18;100831.97;4952643;28;100681;-49
2021/06/18 05:20:12;;;;;;;4.65;4.25;;;23.90;99.80;;;23.91;53.37;100840.06;4957449;28;98433;-49
2021/06/18 05:22:39;;;;;;;11.48;7.80;;;23.90;99.70;;;23.86;53.71;100836.03;4967295;28;97449;-52
2021/06/18 05:25:05;;;;;;;5.03;4.63;;;23.90;99.90;;;23.83;53.76;100833.63;4949242;28;102827;-49
2021/06/18 05:27:32;;;;;;;4.32;4.03;;;23.80;99.90;;;23.82;52.84;100843.53;4958197;28;97466;-50
2021/06/18 05:29:58;;;;;;;4.68;4.30;;;23.80;99.60;;;23.83;53.85;100842.56;4952083;28;97851;-49
2021/06/18 05:32:23;;;;;;;5.13;4.73;;;23.80;99.90;;;23.81;54.05;100841.00;4953529;28;97089;-48
2021/06/18 05:34:49;;;;;;;7.20;6.43;;;23.80;99.90;;;23.84;54.37;100843.41;4954892;28;99514;-48
2021/06/18 05:37:15;;;;;;;8.47;7.60;;;23.80;99.90;;;23.82;54.15;100846.25;4953669;28;100207;-49
2021/06/18 05:39:42;;;;;;;15.73;12.47;;;23.80;99.90;;;23.97;55.71;100847.56;4951630;28;97049;-56
2021/06/18 05:42:09;;;;;;;6.30;5.70;;;23.90;99.90;;;23.93;53.95;100848.00;4937571;28;97469;-53
2021/06/18 05:44:35;;;;;;;6.63;6.03;;;23.90;99.90;;;23.92;53.83;100833.69;4961066;28;99661;-51
2021/06/18 05:47:01;;;;;;;5.97;5.37;;;23.90;99.90;;;23.84;53.72;100832.63;4953100;28;97356;-49
2021/06/18 05:49:27;;;;;;;5.82;5.30;;;23.80;99.90;;;23.84;54.10;100844.25;4946658;28;96653;-48
2021/06/18 05:51:52;;;;;;;8.93;7.70;;;23.80;99.90;;;23.85;53.19;100842.41;4943384;28;96854;-50
2021/06/18 05:54:18;;;;;;;8.43;7.80;;;23.80;99.80;;;23.82;53.46;100848.09;4953990;28;97417;-55
2021/06/18 05:56:44;;;;;;;6.17;5.57;;;23.80;99.90;;;23.79;53.35;100859.97;4948099;28;98113;-50
2021/06/18 05:59:10;;;;;;;6.37;5.80;;;23.80;99.60;;;23.77;53.85;100866.50;4950949;28;99346;-53
2021/06/18 06:01:36;;;;;;;6.37;5.77;;;23.80;99.90;;;23.82;53.77;100862.41;4956026;28;98424;-50
2021/06/18 06:04:02;;;;;;;13.87;10.77;;;23.80;99.90;;;23.87;54.26;100872.75;4946673;28;102596;-49
2021/06/18 06:06:28;;;;;;;6.17;5.67;;;23.90;99.90;;;23.87;54.22;100881.72;4954878;28;98963;-53
2021/06/18 06:08:55;;;;;;;6.60;6.00;;;23.90;99.90;;;23.88;54.04;100886.13;4941101;28;96955;-49
2021/06/18 06:11:26;;;;;;;14.32;12.60;;;23.90;99.90;;;24.07;63.88;100887.19;4950013;28;97266;-50
2021/06/18 06:14:03;;;;;;;16.75;12.80;;;24.00;99.90;;;24.19;58.40;100884.25;4946085;28;98094;-49
2021/06/18 06:16:31;;;;;;;11.50;10.27;;;24.20;99.90;;;24.22;54.87;100877.72;4955082;28;97908;-50
2021/06/18 06:18:58;;;;;;;15.90;13.47;;;24.20;99.90;;;24.15;54.79;100887.34;4948268;28;96966;-53
2021/06/18 06:21:24;;;;;;;16.50;13.77;;;24.10;99.90;;;24.26;61.55;100879.16;4953965;28;97608;-53
2021/06/18 06:23:50;;;;;;;12.57;10.40;;;24.20;99.90;;;24.25;56.40;100882.84;4928927;28;99997;-51
2021/06/18 06:26:19;;;;;;;11.50;9.97;;;24.20;99.90;;;24.28;58.02;100887.94;4950702;28;97056;-49
2021/06/18 06:28:45;;;;;;;17.20;13.77;;;24.30;99.90;;;24.22;53.80;100883.13;4961077;28;97909;-53
2021/06/18 06:31:11;;;;;;;7.07;6.47;;;24.20;99.90;;;24.18;53.44;100884.41;4930646;28;97521;-51
2021/06/18 06:33:37;;;;;;;18.37;13.37;;;24.20;99.90;;;24.26;55.91;100885.41;4924827;28;100498;-53
2021/06/18 06:36:03;;;;;;;16.17;13.55;;;24.30;99.90;;;24.23;58.97;100901.84;4947877;28;101427;-54
2021/06/18 06:38:30;;;;;;;14.00;12.32;;;24.20;99.90;;;24.17;54.36;100890.78;4950203;28;97803;-52
2021/06/18 06:40:56;;;;;;;16.55;14.82;;;24.20;99.90;;;24.19;54.75;100880.72;4950467;28;99632;-49
2021/06/18 06:43:23;;;;;;;15.45;13.10;;;24.20;99.90;;;24.14;53.68;100889.19;4942783;28;98420;-56
2021/06/18 06:45:50;;;;;;;7.38;6.65;;;24.10;99.90;;;24.12;53.30;100893.00;4951512;28;98883;-58
2021/06/18 06:48:16;;;;;;;21.33;17.17;;;24.10;99.90;;;24.16;54.61;100891.72;4949685;28;97896;-55
2021/06/18 06:50:42;;;;;;;17.42;15.63;;;24.10;99.90;;;24.23;54.04;100890.22;4949873;28;100230;-54
2021/06/18 06:53:08;;;;;;;19.33;16.90;;;24.20;99.90;;;24.35;64.22;100891.00;4948567;28;99040;-52
2021/06/18 06:55:35;;;;;;;18.25;15.35;;;24.30;99.90;;;24.37;54.73;100887.16;4951506;28;97546;-51
2021/06/18 06:58:04;;;;;;;17.42;15.02;;;24.40;99.90;;;24.40;55.32;100892.28;4949950;28;97061;-55
2021/06/18 07:00:30;;;;;;;13.88;12.27;;;24.40;99.90;;;24.28;53.56;100883.41;4950523;28;103967;-53
2021/06/18 07:02:56;;;;;;;21.25;13.80;;;24.30;99.90;;;24.22;53.31;100883.13;4923346;28;99858;-53
2021/06/18 07:05:22;;;;;;;7.22;6.53;;;24.30;99.90;;;24.17;53.40;100885.38;4907159;28;99985;-59
2021/06/18 07:07:48;;;;;;;8.07;7.38;;;24.20;99.90;;;24.08;53.78;100884.34;4939310;28;98991;-59
2021/06/18 07:10:14;;;;;;;16.48;14.27;;;24.10;99.90;;;24.30;65.80;100886.00;4931202;28;97389;-50
2021/06/18 07:12:40;;;;;;;19.42;15.85;;;24.30;99.90;;;24.37;62.20;100881.78;4929303;28;98852;-50
2021/06/18 07:15:07;;;;;;;18.30;15.00;;;24.40;99.90;;;24.40;53.73;100881.50;4905621;28;104607;-55
2021/06/18 07:17:33;;;;;;;10.32;9.32;;;24.40;99.90;;;24.31;53.17;100876.94;4944496;28;97170;-54
2021/06/18 07:20:01;;;;;;;17.17;14.18;;;24.30;99.90;;;24.38;58.45;100883.47;4937856;28;97769;-48
2021/06/18 07:22:28;;;;;;;13.57;10.82;;;24.40;99.90;;;24.30;53.19;100876.09;4941610;28;98172;-50
2021/06/18 07:24:54;;;;;;;17.25;14.27;;;24.30;99.90;;;24.27;53.33;100875.47;4932834;28;97263;-55
2021/06/18 07:27:20;;;;;;;18.23;15.18;;;24.30;99.90;;;24.54;63.46;100867.63;4936752;28;97772;-51
2021/06/18 07:29:47;;;;;;;17.77;13.88;;;24.50;99.90;;;24.84;63.00;100861.25;4930787;28;97999;-50
2021/06/18 07:32:13;;;;;;;18.60;14.02;;;24.80;99.90;;;24.84;54.01;100846.91;4933330;28;99718;-54
2021/06/18 07:34:39;;;;;;;17.33;13.65;;;24.90;99.90;;;24.99;63.40;100867.06;4942030;28;98854;-54
2021/06/18 07:37:05;;;;;;;19.30;13.48;;;25.00;99.90;;;25.12;55.02;100867.66;4936495;28;98426;-53
2021/06/18 07:39:33;;;;;;;19.30;12.63;;;25.20;99.90;;;25.37;62.21;100865.38;4943527;28;99655;-53
2021/06/18 07:41:59;;;;;;;15.00;12.18;;;25.40;99.90;;;25.55;62.76;100871.72;4934341;28;97929;-57
2021/06/18 07:44:25;;;;;;;18.00;13.00;;;25.60;99.90;;;25.43;59.40;100875.59;4957424;28;99414;-51
2021/06/18 07:46:51;;;;;;;17.23;13.23;;;25.50;99.90;;;25.58;62.60;100879.53;4940368;28;105792;-52
2021/06/18 07:49:17;;;;;;;14.95;12.85;;;25.60;99.90;;;25.49;52.22;100880.41;4945930;28;96943;-56
2021/06/18 07:51:42;;;;;;;16.50;14.23;;;25.60;99.90;;;25.43;57.45;100880.97;4939789;28;97506;-58
2021/06/18 07:54:08;;;;;;;16.52;13.40;;;25.60;99.90;;;25.37;57.64;100893.22;4940143;28;98717;-53
2021/06/18 07:56:41;;;;;;;13.65;11.98;;;25.50;99.90;;;25.24;52.07;100897.22;4942339;28;99554;-48
2021/06/18 07:59:07;;;;;;;17.50;12.73;;;25.40;99.50;;;24.98;52.32;100892.34;4928319;28;98310;-56
2021/06/18 08:01:33;;;;;;;18.48;13.93;;;25.10;99.40;;;24.82;52.44;100892.06;4943032;28;120630;-56
2021/06/18 08:03:59;;;;;;;22.08;15.38;;;24.90;99.60;;;24.89;62.76;100904.03;4948564;28;100002;-54
2021/06/18 08:06:24;;;;;;;17.80;14.82;;;24.80;99.90;;;24.93;60.18;100911.69;4940962;28;101945;-57
2021/06/18 08:08:50;;;;;;;19.42;14.93;;;25.00;99.90;;;24.90;52.69;100911.13;4934935;28;102190;-57
2021/06/18 08:11:16;;;;;;;20.27;15.55;;;25.00;99.90;;;24.85;52.74;100907.97;4944908;28;98385;-51
2021/06/18 08:13:42;;;;;;;18.40;14.80;;;24.90;99.80;;;24.82;52.24;100902.84;4937223;28;98704;-53
2021/06/18 08:16:08;;;;;;;17.70;13.93;;;24.80;99.50;;;24.76;52.84;100900.75;4947390;28;98217;-56
2021/06/18 08:18:38;;;;;;;18.58;14.90;;;24.80;99.90;;;24.88;56.96;100896.88;4937882;28;98657;-59
2021/06/18 08:21:08;;;;;;;15.85;13.30;;;24.90;99.90;;;24.84;52.82;100895.47;4937511;28;98003;-55
2021/06/18 08:23:33;;;;;;;14.75;12.77;;;24.90;99.90;;;24.81;54.74;100893.91;4939423;28;98484;-53
2021/06/18 08:25:59;;;;;;;19.25;14.38;;;24.90;99.90;;;24.86;60.52;100888.94;4939616;28;97718;-55
2021/06/18 08:28:26;;;;;;;17.10;13.48;;;24.90;99.90;;;24.82;53.00;100894.75;4937024;28;97838;-55
2021/06/18 08:30:52;;;;;;;8.38;7.10;;;24.90;99.80;;;24.56;53.08;100862.09;4940401;28;106394;-53
2021/06/18 08:33:18;;;;;;;17.50;12.77;;;24.70;99.80;;;24.44;52.76;100864.03;4943104;28;97875;-53
2021/06/18 08:35:45;;;;;;;14.75;11.77;;;24.50;99.90;;;24.72;65.09;100877.72;4938207;28;97566;-52
2021/06/18 08:38:10;;;;;;;19.05;13.18;;;24.70;99.90;;;24.82;63.32;100878.59;4961596;28;97813;-48
2021/06/18 08:40:36;;;;;;;18.48;13.27;;;24.90;99.90;;;24.91;62.54;100880.44;4941742;28;104695;-57
2021/06/18 08:43:04;;;;;;;16.23;13.00;;;25.00;99.90;;;24.78;53.15;100890.66;4936184;28;99704;-49
2021/06/18 08:45:31;;;;;;;13.35;11.90;;;24.80;99.90;;;24.79;54.45;100886.97;4941061;28;100339;-51
2021/06/18 08:47:58;;;;;;;16.20;13.05;;;24.80;99.90;;;24.90;59.41;100874.19;4919531;28;97677;-54
2021/06/18 08:50:24;;;;;;;15.10;13.50;;;25.00;99.90;;;25.00;61.80;100879.59;4941582;28;99131;-47
2021/06/18 08:53:01;;;;;;;14.00;12.57;;;25.10;99.90;;;24.90;52.41;100866.09;4933957;28;99621;-54
2021/06/18 08:55:30;;;;;;;10.80;8.68;;;25.00;99.90;;;24.75;52.84;100872.06;4952037;28;97483;-51
2021/06/18 08:58:03;;;;;;;16.08;11.43;;;24.80;99.90;;;24.68;52.83;100873.59;4941785;28;97591;-50
2021/06/18 09:00:30;;;;;;;17.83;12.90;;;24.70;99.90;;;24.58;52.95;100869.03;4951932;28;100202;-48
2021/06/18 09:02:56;;;;;;;14.77;12.35;;;24.60;99.90;;;24.70;60.77;100868.91;4939274;28;100012;-53
2021/06/18 09:05:23;;;;;;;15.57;11.50;;;24.70;99.90;;;24.81;61.13;100858.84;4938219;28;98632;-48
2021/06/18 09:07:59;;;;;;;14.63;11.82;;;24.90;99.90;;;24.73;52.82;100860.53;4929101;28;99925;-52
2021/06/18 09:10:38;;;;;;;16.38;11.23;;;24.80;99.90;;;24.73;54.15;100857.84;4944816;28;98664;-58
2021/06/18 09:13:04;;;;;;;13.70;11.88;;;24.80;99.90;;;24.66;52.75;100867.50;4935382;28;97947;-52
2021/06/18 09:15:30;;;;;;;11.60;10.45;;;24.70;99.90;;;24.77;57.58;100861.97;4946577;28;98536;-49
2021/06/18 09:17:56;;;;;;;13.88;11.20;;;24.80;99.90;;;24.73;53.96;100860.53;4927251;28;98386;-55
2021/06/18 09:20:24;;;;;;;12.77;10.50;;;24.80;99.90;;;24.75;52.60;100863.97;4909141;28;108193;-54
2021/06/18 09:22:50;;;;;;;16.80;10.70;;;24.80;99.90;;;24.68;52.42;100868.19;4930606;28;98680;-52
2021/06/18 09:25:19;;;;;;;14.30;10.85;;;24.80;99.70;;;24.71;52.55;100867.91;4944830;28;101536;-54
2021/06/18 09:27:49;;;;;;;28.98;11.57;;;24.80;99.90;;;24.80;56.18;100867.09;4939039;28;97982;-57
2021/06/18 09:30:31;;;;;;;11.73;10.15;;;24.90;99.90;;;24.85;55.93;100865.66;4951541;28;99661;-58
2021/06/18 09:33:06;;;;;;;14.63;10.20;;;25.00;99.90;;;24.81;52.29;100858.00;4906058;28;98182;-54
2021/06/18 09:35:34;;;;;;;13.48;10.77;;;24.90;99.50;;;24.78;52.32;100852.88;4936929;28;97373;-47
2021/06/18 09:38:04;;;;;;;15.77;10.63;;;24.80;99.90;;;24.70;52.42;100855.44;4930781;28;98749;-48
2021/06/18 09:40:31;;;;;;;16.27;10.35;;;24.80;99.50;;;24.72;55.72;100864.22;4934673;28;98269;-55
2021/06/18 09:43:09;;;;;;;14.95;9.00;;;24.80;99.90;;;24.79;52.44;100860.84;4932344;28;97433;-47
2021/06/18 09:45:37;;;;;;;13.07;9.48;;;24.90;99.70;;;24.68;52.04;100852.88;4956060;28;97427;-48
2021/06/18 09:48:21;;;;;;;14.82;10.00;;;24.80;99.30;;;24.90;52.09;100854.47;4935297;28;97553;-50
2021/06/18 09:50:59;;;;;;;11.05;8.70;;;25.00;99.40;;;24.76;52.20;100844.09;4941412;28;98457;-50
2021/06/18 09:53:28;;;;;;;12.55;8.85;;;24.90;99.20;;;24.72;52.16;100848.03;4955094;28;97338;-50
2021/06/18 09:56:08;;;;;;;11.98;8.68;;;24.80;99.30;;;24.67;52.26;100844.94;4940490;28;98076;-51
2021/06/18 09:58:38;;;;;;;12.75;9.63;;;24.70;99.30;;;24.59;52.13;100859.09;4946772;28;97531;-52
2021/06/18 10:01:25;;;;;;;12.93;8.40;;;24.60;99.30;;;24.48;52.54;100857.41;4939804;28;98182;-54
2021/06/18 10:04:02;;;;;;;8.38;6.88;;;24.50;99.40;;;24.37;52.82;100857.50;4949749;28;98415;-53
2021/06/18 10:06:36;;;;;;;15.65;7.85;;;24.40;99.60;;;24.28;52.85;100856.47;4953229;28;97497;-57
2021/06/18 10:09:04;;;;;;;11.48;7.15;;;24.30;99.50;;;24.22;53.34;100845.41;4943024;28;100753;-56
2021/06/18 10:11:31;;;;;;;6.63;6.07;;;24.30;99.90;;;24.18;53.24;100843.97;4942270;28;98628;-57